sensor_id;sensor_type;location;lat;lon;timestamp;pressure;altitude;pressure_sealevel;temperature;humidity
41886;BME280;27567;43.084;25.616;2023-04-25T00:00:07;97461.31;;;10.92;100.00
41886;BME280;27567;43.084;25.616;2023-04-25T00:02:52;97461.47;;;10.97;100.00
41886;BME280;27567;43.084;25.616;2023-04-25T00:05:36;97446.00;;;10.81;100.00
41886;BME280;27567;43.084;25.616;2023-04-25T00:08:21;97439.28;;;10.72;100.00
41886;BME280;27567;43.084;25.616;2023-04-25T00:11:05;97435.78;;;10.90;100.00
41886;BME280;27567;43.084;25.616;2023-04-25T00:13:49;97428.97;;;10.87;100.00
41886;BME280;27567;43.084;25.616;2023-04-25T00:16:34;97432.00;;;10.79;100.00
41886;BME280;27567;43.084;25.616;2023-04-25T00:19:18;97428.88;;;10.82;100.00
41886;BME280;27567;43.084;25.616;2023-04-25T00:22:03;97423.63;;;10.87;100.00
41886;BME280;27567;43.084;25.616;2023-04-25T00:24:49;97421.63;;;10.82;100.00
41886;BME280;27567;43.084;25.616;2023-04-25T00:27:33;97405.47;;;10.71;100.00
41886;BME280;27567;43.084;25.616;2023-04-25T00:30:17;97395.13;;;10.74;100.00
41886;BME280;27567;43.084;25.616;2023-04-25T00:33:01;97392.00;;;10.77;100.00
41886;BME280;27567;43.084;25.616;2023-04-25T00:35:45;97382.69;;;10.80;100.00
41886;BME280;27567;43.084;25.616;2023-04-25T00:38:29;97384.03;;;10.71;100.00
41886;BME280;27567;43.084;25.616;2023-04-25T00:41:13;97383.03;;;10.83;100.00
41886;BME280;27567;43.084;25.616;2023-04-25T00:43:59;97392.78;;;10.96;100.00
41886;BME280;27567;43.084;25.616;2023-04-25T00:46:43;97391.13;;;10.95;100.00
41886;BME280;27567;43.084;25.616;2023-04-25T00:49:28;97395.94;;;10.75;100.00
41886;BME280;27567;43.084;25.616;2023-04-25T00:52:12;97398.91;;;10.85;100.00
41886;BME280;27567;43.084;25.616;2023-04-25T00:54:56;97384.41;;;10.74;100.00
41886;BME280;27567;43.084;25.616;2023-04-25T00:57:40;97376.59;;;10.73;100.00
41886;BME280;27567;43.084;25.616;2023-04-25T01:00:24;97382.34;;;10.58;100.00
41886;BME280;27567;43.084;25.616;2023-04-25T01:03:08;97390.44;;;10.70;100.00
41886;BME280;27567;43.084;25.616;2023-04-25T01:05:54;97366.06;;;10.59;100.00
41886;BME280;27567;43.084;25.616;2023-04-25T01:08:39;97377.28;;;10.49;100.00
41886;BME280;27567;43.084;25.616;2023-04-25T01:11:23;97365.41;;;10.45;100.00
41886;BME280;27567;43.084;25.616;2023-04-25T01:14:07;97362.63;;;10.52;100.00
41886;BME280;27567;43.084;25.616;2023-04-25T01:16:51;97361.94;;;10.38;100.00
41886;BME280;27567;43.084;25.616;2023-04-25T01:19:36;97355.31;;;10.41;100.00
41886;BME280;27567;43.084;25.616;2023-04-25T01:22:20;97340.88;;;10.42;100.00
41886;BME280;27567;43.084;25.616;2023-04-25T01:25:05;97338.97;;;10.49;100.00
41886;BME280;27567;43.084;25.616;2023-04-25T01:27:49;97332.19;;;10.46;100.00
41886;BME280;27567;43.084;25.616;2023-04-25T01:30:34;97328.78;;;10.39;100.00
41886;BME280;27567;43.084;25.616;2023-04-25T01:33:19;97325.75;;;10.47;100.00
41886;BME280;27567;43.084;25.616;2023-04-25T01:36:05;97316.47;;;10.50;100.00
41886;BME280;27567;43.084;25.616;2023-04-25T01:38:50;97311.13;;;10.50;100.00
41886;BME280;27567;43.084;25.616;2023-04-25T01:41:34;97318.81;;;10.46;100.00
41886;BME280;27567;43.084;25.616;2023-04-25T01:44:18;97310.75;;;10.46;100.00
41886;BME280;27567;43.084;25.616;2023-04-25T01:47:03;97302.25;;;10.49;100.00
41886;BME280;27567;43.084;25.616;2023-04-25T01:49:47;97299.25;;;10.58;100.00
41886;BME280;27567;43.084;25.616;2023-04-25T01:52:31;97291.06;;;10.52;100.00
41886;BME280;27567;43.084;25.616;2023-04-25T01:55:16;97283.28;;;10.51;100.00
41886;BME280;27567;43.084;25.616;2023-04-25T01:58:02;97283.03;;;10.52;100.00
41886;BME280;27567;43.084;25.616;2023-04-25T02:00:46;97274.34;;;10.57;100.00
41886;BME280;27567;43.084;25.616;2023-04-25T02:03:31;97274.09;;;10.59;100.00
41886;BME280;27567;43.084;25.616;2023-04-25T02:06:16;97269.03;;;10.50;100.00
41886;BME280;27567;43.084;25.616;2023-04-25T02:09:00;97260.00;;;10.63;100.00
41886;BME280;27567;43.084;25.616;2023-04-25T02:11:44;97266.78;;;10.66;100.00
41886;BME280;27567;43.084;25.616;2023-04-25T02:14:28;97253.16;;;10.67;100.00
41886;BME280;27567;43.084;25.616;2023-04-25T02:17:12;97252.34;;;10.67;100.00
41886;BME280;27567;43.084;25.616;2023-04-25T02:19:57;97245.47;;;10.71;100.00
41886;BME280;27567;43.084;25.616;2023-04-25T02:22:41;97242.81;;;10.71;100.00
41886;BME280;27567;43.084;25.616;2023-04-25T02:25:25;97232.16;;;10.64;100.00
41886;BME280;27567;43.084;25.616;2023-04-25T02:28:09;97247.09;;;10.72;100.00
41886;BME280;27567;43.084;25.616;2023-04-25T02:30:54;97238.84;;;10.74;100.00
41886;BME280;27567;43.084;25.616;2023-04-25T02:33:38;97237.06;;;10.67;100.00
41886;BME280;27567;43.084;25.616;2023-04-25T02:36:22;97254.06;;;10.61;100.00
41886;BME280;27567;43.084;25.616;2023-04-25T02:39:06;97244.38;;;10.60;100.00
41886;BME280;27567;43.084;25.616;2023-04-25T02:41:51;97245.78;;;10.63;100.00
41886;BME280;27567;43.084;25.616;2023-04-25T02:44:36;97241.69;;;10.60;100.00
41886;BME280;27567;43.084;25.616;2023-04-25T02:47:20;97240.72;;;10.43;100.00
41886;BME280;27567;43.084;25.616;2023-04-25T02:50:05;97242.63;;;10.35;100.00
41886;BME280;27567;43.084;25.616;2023-04-25T02:52:52;97246.66;;;10.45;100.00
41886;BME280;27567;43.084;25.616;2023-04-25T02:55:35;97239.75;;;10.37;100.00
41886;BME280;27567;43.084;25.616;2023-04-25T02:58:19;97237.75;;;10.32;100.00
41886;BME280;27567;43.084;25.616;2023-04-25T03:01:04;97251.88;;;10.40;100.00
41886;BME280;27567;43.084;25.616;2023-04-25T03:03:48;97254.25;;;10.48;100.00
41886;BME280;27567;43.084;25.616;2023-04-25T03:06:32;97259.84;;;10.46;100.00
41886;BME280;27567;43.084;25.616;2023-04-25T03:09:16;97269.84;;;10.39;100.00
41886;BME280;27567;43.084;25.616;2023-04-25T03:11:59;97267.28;;;10.44;100.00
41886;BME280;27567;43.084;25.616;2023-04-25T03:14:44;97263.78;;;10.44;100.00
41886;BME280;27567;43.084;25.616;2023-04-25T03:17:28;97266.16;;;10.52;100.00
41886;BME280;27567;43.084;25.616;2023-04-25T03:20:12;97277.09;;;10.50;100.00
41886;BME280;27567;43.084;25.616;2023-04-25T03:22:56;97276.41;;;10.55;100.00
41886;BME280;27567;43.084;25.616;2023-04-25T03:25:40;97277.00;;;10.57;100.00
41886;BME280;27567;43.084;25.616;2023-04-25T03:28:24;97272.47;;;10.58;100.00
41886;BME280;27567;43.084;25.616;2023-04-25T03:31:09;97282.97;;;10.59;100.00
41886;BME280;27567;43.084;25.616;2023-04-25T03:33:52;97277.66;;;10.71;100.00
41886;BME280;27567;43.084;25.616;2023-04-25T03:36:36;97282.44;;;10.81;100.00
41886;BME280;27567;43.084;25.616;2023-04-25T03:39:20;97278.97;;;10.92;100.00
41886;BME280;27567;43.084;25.616;2023-04-25T03:42:04;97273.22;;;10.77;100.00
41886;BME280;27567;43.084;25.616;2023-04-25T03:44:49;97280.25;;;10.90;100.00
41886;BME280;27567;43.084;25.616;2023-04-25T03:47:33;97274.53;;;10.98;100.00
41886;BME280;27567;43.084;25.616;2023-04-25T03:50:17;97269.19;;;10.98;100.00
41886;BME280;27567;43.084;25.616;2023-04-25T03:53:01;97273.44;;;10.75;100.00
41886;BME280;27567;43.084;25.616;2023-04-25T03:55:45;97267.91;;;10.89;100.00
41886;BME280;27567;43.084;25.616;2023-04-25T03:58:29;97272.25;;;11.02;100.00
41886;BME280;27567;43.084;25.616;2023-04-25T04:01:13;97272.22;;;10.90;100.00
41886;BME280;27567;43.084;25.616;2023-04-25T04:03:57;97280.91;;;10.85;100.00
41886;BME280;27567;43.084;25.616;2023-04-25T04:06:40;97272.81;;;11.04;100.00
41886;BME280;27567;43.084;25.616;2023-04-25T04:09:26;97268.75;;;11.13;100.00
41886;BME280;27567;43.084;25.616;2023-04-25T04:12:11;97275.53;;;11.16;100.00
41886;BME280;27567;43.084;25.616;2023-04-25T04:14:55;97270.03;;;11.22;100.00
41886;BME280;27567;43.084;25.616;2023-04-25T04:17:39;97279.16;;;11.45;100.00
41886;BME280;27567;43.084;25.616;2023-04-25T04:20:24;97277.75;;;11.42;100.00
41886;BME280;27567;43.084;25.616;2023-04-25T04:23:09;97262.31;;;11.14;100.00
41886;BME280;27567;43.084;25.616;2023-04-25T04:25:53;97263.16;;;11.15;100.00
41886;BME280;27567;43.084;25.616;2023-04-25T04:28:37;97266.19;;;11.18;100.00
41886;BME280;27567;43.084;25.616;2023-04-25T04:31:21;97262.22;;;11.21;100.00
41886;BME280;27567;43.084;25.616;2023-04-25T04:34:06;97265.84;;;11.15;100.00
41886;BME280;27567;43.084;25.616;2023-04-25T04:36:50;97262.34;;;11.26;100.00
41886;BME280;27567;43.084;25.616;2023-04-25T04:39:34;97265.59;;;11.28;100.00
41886;BME280;27567;43.084;25.616;2023-04-25T04:42:18;97256.50;;;11.41;100.00
41886;BME280;27567;43.084;25.616;2023-04-25T04:45:02;97250.81;;;11.49;100.00
41886;BME280;27567;43.084;25.616;2023-04-25T04:47:47;97262.34;;;11.50;100.00
41886;BME280;27567;43.084;25.616;2023-04-25T04:50:32;97261.28;;;11.51;100.00
41886;BME280;27567;43.084;25.616;2023-04-25T04:53:16;97257.91;;;11.67;100.00
41886;BME280;27567;43.084;25.616;2023-04-25T04:56:00;97251.38;;;11.75;100.00
41886;BME280;27567;43.084;25.616;2023-04-25T04:58:44;97247.81;;;11.98;100.00
41886;BME280;27567;43.084;25.616;2023-04-25T05:01:28;97250.88;;;12.02;100.00
41886;BME280;27567;43.084;25.616;2023-04-25T05:04:13;97250.75;;;11.85;100.00
41886;BME280;27567;43.084;25.616;2023-04-25T05:06:58;97251.69;;;12.02;100.00
41886;BME280;27567;43.084;25.616;2023-04-25T05:09:42;97236.84;;;12.12;100.00
41886;BME280;27567;43.084;25.616;2023-04-25T05:12:26;97241.53;;;12.33;100.00
41886;BME280;27567;43.084;25.616;2023-04-25T05:15:11;97236.34;;;12.44;100.00
41886;BME280;27567;43.084;25.616;2023-04-25T05:17:55;97232.41;;;12.63;100.00
41886;BME280;27567;43.084;25.616;2023-04-25T05:20:39;97233.34;;;12.86;100.00
41886;BME280;27567;43.084;25.616;2023-04-25T05:23:23;97225.16;;;13.15;100.00
41886;BME280;27567;43.084;25.616;2023-04-25T05:26:07;97236.00;;;13.37;100.00
41886;BME280;27567;43.084;25.616;2023-04-25T05:28:57;97237.66;;;13.21;100.00
41886;BME280;27567;43.084;25.616;2023-04-25T05:31:41;97231.94;;;13.35;100.00
41886;BME280;27567;43.084;25.616;2023-04-25T05:34:25;97241.25;;;13.44;100.00
41886;BME280;27567;43.084;25.616;2023-04-25T05:37:09;97231.91;;;13.52;100.00
41886;BME280;27567;43.084;25.616;2023-04-25T05:39:54;97243.06;;;13.61;100.00
41886;BME280;27567;43.084;25.616;2023-04-25T05:42:38;97240.75;;;13.47;100.00
41886;BME280;27567;43.084;25.616;2023-04-25T05:45:22;97245.31;;;13.30;100.00
41886;BME280;27567;43.084;25.616;2023-04-25T05:48:05;97244.66;;;13.22;100.00
41886;BME280;27567;43.084;25.616;2023-04-25T05:50:49;97246.03;;;13.59;100.00
41886;BME280;27567;43.084;25.616;2023-04-25T05:53:35;97243.53;;;13.75;100.00
41886;BME280;27567;43.084;25.616;2023-04-25T05:56:19;97250.03;;;14.68;100.00
41886;BME280;27567;43.084;25.616;2023-04-25T05:59:03;97253.22;;;15.25;100.00
41886;BME280;27567;43.084;25.616;2023-04-25T06:01:47;97252.50;;;15.02;100.00
41886;BME280;27567;43.084;25.616;2023-04-25T06:04:31;97256.25;;;14.68;100.00
41886;BME280;27567;43.084;25.616;2023-04-25T06:07:15;97254.84;;;14.66;100.00
41886;BME280;27567;43.084;25.616;2023-04-25T06:09:59;97261.75;;;14.56;100.00
41886;BME280;27567;43.084;25.616;2023-04-25T06:12:44;97272.00;;;15.09;100.00
41886;BME280;27567;43.084;25.616;2023-04-25T06:15:29;97261.44;;;15.40;100.00
41886;BME280;27567;43.084;25.616;2023-04-25T06:18:13;97261.91;;;15.32;100.00
41886;BME280;27567;43.084;25.616;2023-04-25T06:20:58;97258.72;;;15.83;100.00
41886;BME280;27567;43.084;25.616;2023-04-25T06:23:42;97264.69;;;15.85;100.00
41886;BME280;27567;43.084;25.616;2023-04-25T06:26:26;97260.25;;;16.12;100.00
41886;BME280;27567;43.084;25.616;2023-04-25T06:29:10;97259.84;;;15.87;100.00
41886;BME280;27567;43.084;25.616;2023-04-25T06:31:54;97260.78;;;16.08;100.00
41886;BME280;27567;43.084;25.616;2023-04-25T06:34:38;97267.94;;;16.51;100.00
41886;BME280;27567;43.084;25.616;2023-04-25T06:37:22;97265.75;;;16.43;100.00
41886;BME280;27567;43.084;25.616;2023-04-25T06:40:06;97270.91;;;16.49;100.00
41886;BME280;27567;43.084;25.616;2023-04-25T06:42:50;97256.59;;;16.54;100.00
41886;BME280;27567;43.084;25.616;2023-04-25T06:45:34;97266.44;;;16.96;100.00
41886;BME280;27567;43.084;25.616;2023-04-25T06:48:18;97266.63;;;16.64;100.00
41886;BME280;27567;43.084;25.616;2023-04-25T06:51:02;97265.31;;;16.87;100.00
41886;BME280;27567;43.084;25.616;2023-04-25T06:53:46;97262.47;;;16.30;100.00
41886;BME280;27567;43.084;25.616;2023-04-25T06:56:30;97260.63;;;16.41;100.00
41886;BME280;27567;43.084;25.616;2023-04-25T06:59:14;97260.44;;;16.89;100.00
41886;BME280;27567;43.084;25.616;2023-04-25T07:01:58;97265.63;;;17.06;100.00
41886;BME280;27567;43.084;25.616;2023-04-25T07:04:42;97277.53;;;17.10;100.00
41886;BME280;27567;43.084;25.616;2023-04-25T07:07:26;97265.09;;;17.15;100.00
41886;BME280;27567;43.084;25.616;2023-04-25T07:10:11;97261.84;;;17.43;100.00
41886;BME280;27567;43.084;25.616;2023-04-25T07:12:54;97273.19;;;17.66;100.00
41886;BME280;27567;43.084;25.616;2023-04-25T07:15:39;97276.88;;;17.96;100.00
41886;BME280;27567;43.084;25.616;2023-04-25T07:18:23;97288.19;;;18.40;100.00
41886;BME280;27567;43.084;25.616;2023-04-25T07:21:07;97283.44;;;18.61;100.00
41886;BME280;27567;43.084;25.616;2023-04-25T07:23:51;97284.72;;;18.74;100.00
41886;BME280;27567;43.084;25.616;2023-04-25T07:26:35;97283.44;;;18.61;100.00
41886;BME280;27567;43.084;25.616;2023-04-25T07:29:19;97283.47;;;18.56;100.00
41886;BME280;27567;43.084;25.616;2023-04-25T07:32:03;97275.50;;;18.20;100.00
41886;BME280;27567;43.084;25.616;2023-04-25T07:34:47;97283.00;;;18.38;100.00
41886;BME280;27567;43.084;25.616;2023-04-25T07:37:31;97281.88;;;18.95;100.00
41886;BME280;27567;43.084;25.616;2023-04-25T07:40:15;97274.94;;;19.52;100.00
41886;BME280;27567;43.084;25.616;2023-04-25T07:43:00;97283.94;;;19.77;100.00
41886;BME280;27567;43.084;25.616;2023-04-25T07:45:45;97274.72;;;20.03;100.00
41886;BME280;27567;43.084;25.616;2023-04-25T07:48:29;97284.84;;;19.97;100.00
41886;BME280;27567;43.084;25.616;2023-04-25T07:51:13;97280.34;;;19.23;100.00
41886;BME280;27567;43.084;25.616;2023-04-25T07:53:57;97279.13;;;19.05;100.00
41886;BME280;27567;43.084;25.616;2023-04-25T07:56:41;97275.84;;;19.72;100.00
41886;BME280;27567;43.084;25.616;2023-04-25T07:59:25;97278.00;;;20.00;100.00
41886;BME280;27567;43.084;25.616;2023-04-25T08:02:09;97286.19;;;19.70;100.00
41886;BME280;27567;43.084;25.616;2023-04-25T08:04:53;97281.53;;;20.24;100.00
41886;BME280;27567;43.084;25.616;2023-04-25T08:07:37;97273.38;;;20.24;100.00
41886;BME280;27567;43.084;25.616;2023-04-25T08:10:22;97278.66;;;19.62;100.00
41886;BME280;27567;43.084;25.616;2023-04-25T08:13:06;97275.38;;;18.96;100.00
41886;BME280;27567;43.084;25.616;2023-04-25T08:15:50;97275.53;;;19.15;100.00
41886;BME280;27567;43.084;25.616;2023-04-25T08:18:34;97274.34;;;18.86;100.00
41886;BME280;27567;43.084;25.616;2023-04-25T08:21:18;97273.53;;;18.81;100.00
41886;BME280;27567;43.084;25.616;2023-04-25T08:24:02;97277.31;;;19.30;100.00
41886;BME280;27567;43.084;25.616;2023-04-25T08:26:47;97275.59;;;19.39;100.00
41886;BME280;27567;43.084;25.616;2023-04-25T08:29:32;97271.34;;;19.57;100.00
41886;BME280;27567;43.084;25.616;2023-04-25T08:32:16;97271.09;;;19.59;100.00
41886;BME280;27567;43.084;25.616;2023-04-25T08:35:00;97270.81;;;18.86;100.00
41886;BME280;27567;43.084;25.616;2023-04-25T08:37:45;97268.06;;;19.90;100.00
41886;BME280;27567;43.084;25.616;2023-04-25T08:40:28;97262.84;;;20.18;100.00
41886;BME280;27567;43.084;25.616;2023-04-25T08:43:13;97270.41;;;19.43;100.00
41886;BME280;27567;43.084;25.616;2023-04-25T08:45:59;97252.06;;;18.44;100.00
41886;BME280;27567;43.084;25.616;2023-04-25T08:48:45;97262.47;;;18.72;100.00
41886;BME280;27567;43.084;25.616;2023-04-25T08:51:32;97264.94;;;18.73;100.00
41886;BME280;27567;43.084;25.616;2023-04-25T08:54:16;97260.81;;;18.76;100.00
41886;BME280;27567;43.084;25.616;2023-04-25T08:57:01;97261.56;;;18.87;100.00
41886;BME280;27567;43.084;25.616;2023-04-25T08:59:46;97259.94;;;18.86;100.00
41886;BME280;27567;43.084;25.616;2023-04-25T09:02:31;97256.75;;;19.18;100.00
41886;BME280;27567;43.084;25.616;2023-04-25T09:05:15;97274.28;;;18.52;100.00
41886;BME280;27567;43.084;25.616;2023-04-25T09:08:00;97269.94;;;17.59;100.00
41886;BME280;27567;43.084;25.616;2023-04-25T09:10:44;97269.34;;;17.72;100.00
41886;BME280;27567;43.084;25.616;2023-04-25T09:13:29;97267.38;;;18.20;100.00
41886;BME280;27567;43.084;25.616;2023-04-25T09:16:13;97258.81;;;18.97;100.00
41886;BME280;27567;43.084;25.616;2023-04-25T09:19:01;97262.81;;;19.10;100.00
41886;BME280;27567;43.084;25.616;2023-04-25T09:21:48;97265.25;;;19.41;100.00
41886;BME280;27567;43.084;25.616;2023-04-25T09:24:43;97263.19;;;19.28;100.00
41886;BME280;27567;43.084;25.616;2023-04-25T09:27:29;97263.34;;;19.12;100.00
41886;BME280;27567;43.084;25.616;2023-04-25T09:30:15;97266.22;;;18.81;100.00
41886;BME280;27567;43.084;25.616;2023-04-25T09:33:10;97254.31;;;18.77;100.00
41886;BME280;27567;43.084;25.616;2023-04-25T09:36:02;97256.66;;;18.89;100.00
41886;BME280;27567;43.084;25.616;2023-04-25T09:38:46;97251.19;;;19.34;100.00
41886;BME280;27567;43.084;25.616;2023-04-25T09:41:30;97243.16;;;20.02;100.00
41886;BME280;27567;43.084;25.616;2023-04-25T09:44:14;97246.31;;;19.31;100.00
41886;BME280;27567;43.084;25.616;2023-04-25T09:46:58;97269.69;;;18.92;100.00
41886;BME280;27567;43.084;25.616;2023-04-25T09:49:43;97323.06;;;17.34;100.00
41886;BME280;27567;43.084;25.616;2023-04-25T09:52:27;97298.72;;;15.43;100.00
41886;BME280;27567;43.084;25.616;2023-04-25T09:55:12;97319.19;;;14.12;100.00
41886;BME280;27567;43.084;25.616;2023-04-25T09:57:57;97324.69;;;13.78;100.00
41886;BME280;27567;43.084;25.616;2023-04-25T10:00:46;97321.53;;;13.01;100.00
41886;BME280;27567;43.084;25.616;2023-04-25T10:03:32;97290.66;;;12.05;100.00
41886;BME280;27567;43.084;25.616;2023-04-25T10:06:19;97289.19;;;11.38;100.00
41886;BME280;27567;43.084;25.616;2023-04-25T10:09:09;97288.78;;;10.98;100.00
41886;BME280;27567;43.084;25.616;2023-04-25T10:11:54;97306.63;;;10.93;100.00
41886;BME280;27567;43.084;25.616;2023-04-25T10:14:40;97314.69;;;10.74;100.00
41886;BME280;27567;43.084;25.616;2023-04-25T10:17:26;97305.41;;;10.46;100.00
41886;BME280;27567;43.084;25.616;2023-04-25T10:20:11;97309.94;;;10.46;100.00
41886;BME280;27567;43.084;25.616;2023-04-25T10:23:12;97306.91;;;10.42;100.00
41886;BME280;27567;43.084;25.616;2023-04-25T10:25:57;97314.53;;;10.38;100.00
41886;BME280;27567;43.084;25.616;2023-04-25T10:29:02;97286.09;;;10.37;100.00
41886;BME280;27567;43.084;25.616;2023-04-25T10:31:46;97288.16;;;10.35;100.00
41886;BME280;27567;43.084;25.616;2023-04-25T10:34:44;97298.31;;;10.52;100.00
41886;BME280;27567;43.084;25.616;2023-04-25T10:37:30;97289.63;;;10.68;100.00
41886;BME280;27567;43.084;25.616;2023-04-25T10:40:21;97274.00;;;10.65;100.00
41886;BME280;27567;43.084;25.616;2023-04-25T10:46:19;97253.59;;;11.66;100.00
41886;BME280;27567;43.084;25.616;2023-04-25T10:49:03;97243.84;;;12.13;100.00
41886;BME280;27567;43.084;25.616;2023-04-25T10:51:48;97236.38;;;12.61;100.00
41886;BME280;27567;43.084;25.616;2023-04-25T10:54:32;97231.88;;;13.13;100.00
41886;BME280;27567;43.084;25.616;2023-04-25T10:57:42;97234.63;;;13.18;100.00
41886;BME280;27567;43.084;25.616;2023-04-25T11:00:27;97224.97;;;13.56;100.00
41886;BME280;27567;43.084;25.616;2023-04-25T11:03:16;97231.78;;;13.81;100.00
41886;BME280;27567;43.084;25.616;2023-04-25T11:06:01;97240.81;;;14.14;100.00
41886;BME280;27567;43.084;25.616;2023-04-25T11:08:51;97238.19;;;14.47;100.00
41886;BME280;27567;43.084;25.616;2023-04-25T11:11:36;97232.03;;;15.06;100.00
41886;BME280;27567;43.084;25.616;2023-04-25T11:14:21;97245.94;;;14.93;100.00
41886;BME280;27567;43.084;25.616;2023-04-25T11:17:05;97247.53;;;14.88;100.00
41886;BME280;27567;43.084;25.616;2023-04-25T11:19:50;97254.16;;;15.41;100.00
41886;BME280;27567;43.084;25.616;2023-04-25T11:22:34;97261.66;;;15.01;100.00
41886;BME280;27567;43.084;25.616;2023-04-25T11:25:18;97251.19;;;14.77;100.00
41886;BME280;27567;43.084;25.616;2023-04-25T11:28:02;97256.94;;;15.51;100.00
41886;BME280;27567;43.084;25.616;2023-04-25T11:30:50;97261.53;;;15.99;100.00
41886;BME280;27567;43.084;25.616;2023-04-25T11:33:34;97263.09;;;16.63;100.00
41886;BME280;27567;43.084;25.616;2023-04-25T11:36:19;97265.28;;;20.19;100.00
41886;BME280;27567;43.084;25.616;2023-04-25T11:39:03;97253.44;;;24.15;100.00
41886;BME280;27567;43.084;25.616;2023-04-25T11:41:48;97251.28;;;27.41;85.46
41886;BME280;27567;43.084;25.616;2023-04-25T11:44:31;97240.56;;;27.61;81.03
41886;BME280;27567;43.084;25.616;2023-04-25T11:47:15;97230.50;;;27.78;73.27
41886;BME280;27567;43.084;25.616;2023-04-25T11:50:01;97218.25;;;28.25;70.96
41886;BME280;27567;43.084;25.616;2023-04-25T11:52:47;97215.34;;;29.28;69.41
41886;BME280;27567;43.084;25.616;2023-04-25T11:55:31;97218.22;;;27.87;72.90
41886;BME280;27567;43.084;25.616;2023-04-25T11:58:16;97211.44;;;28.59;64.19
41886;BME280;27567;43.084;25.616;2023-04-25T12:00:59;97204.97;;;29.08;61.52
41886;BME280;27567;43.084;25.616;2023-04-25T12:03:46;97195.91;;;30.72;48.69
41886;BME280;27567;43.084;25.616;2023-04-25T12:06:30;97207.81;;;30.21;55.66
41886;BME280;27567;43.084;25.616;2023-04-25T12:09:17;97202.19;;;28.14;63.65
41886;BME280;27567;43.084;25.616;2023-04-25T12:12:02;97207.31;;;26.05;84.62
41886;BME280;27567;43.084;25.616;2023-04-25T12:14:47;97203.41;;;25.20;86.11
41886;BME280;27567;43.084;25.616;2023-04-25T12:17:35;97206.28;;;24.27;95.76
41886;BME280;27567;43.084;25.616;2023-04-25T12:20:24;97194.22;;;24.45;98.49
41886;BME280;27567;43.084;25.616;2023-04-25T12:23:08;97185.56;;;23.22;100.00
41886;BME280;27567;43.084;25.616;2023-04-25T12:25:52;97187.16;;;21.15;100.00
41886;BME280;27567;43.084;25.616;2023-04-25T12:28:36;97184.03;;;20.51;100.00
41886;BME280;27567;43.084;25.616;2023-04-25T12:31:20;97178.50;;;19.50;100.00
41886;BME280;27567;43.084;25.616;2023-04-25T12:34:06;97169.75;;;18.59;100.00
41886;BME280;27567;43.084;25.616;2023-04-25T12:36:51;97179.78;;;18.14;100.00
41886;BME280;27567;43.084;25.616;2023-04-25T12:39:35;97181.44;;;18.10;100.00
41886;BME280;27567;43.084;25.616;2023-04-25T12:42:20;97187.78;;;17.79;100.00
41886;BME280;27567;43.084;25.616;2023-04-25T12:45:04;97198.94;;;17.52;100.00
41886;BME280;27567;43.084;25.616;2023-04-25T12:47:48;97193.31;;;16.91;100.00
41886;BME280;27567;43.084;25.616;2023-04-25T12:50:32;97180.59;;;16.71;100.00
41886;BME280;27567;43.084;25.616;2023-04-25T12:53:20;97187.63;;;16.67;100.00
41886;BME280;27567;43.084;25.616;2023-04-25T12:56:04;97194.63;;;16.58;100.00
41886;BME280;27567;43.084;25.616;2023-04-25T12:58:49;97196.91;;;15.87;100.00
41886;BME280;27567;43.084;25.616;2023-04-25T13:01:33;97198.66;;;15.66;100.00
41886;BME280;27567;43.084;25.616;2023-04-25T13:04:17;97200.00;;;15.20;100.00
41886;BME280;27567;43.084;25.616;2023-04-25T13:07:03;97199.00;;;14.94;100.00
41886;BME280;27567;43.084;25.616;2023-04-25T13:09:47;97195.47;;;14.61;100.00
41886;BME280;27567;43.084;25.616;2023-04-25T13:12:31;97201.31;;;14.25;100.00
41886;BME280;27567;43.084;25.616;2023-04-25T13:15:15;97209.88;;;13.94;100.00
41886;BME280;27567;43.084;25.616;2023-04-25T13:17:59;97216.72;;;13.63;100.00
41886;BME280;27567;43.084;25.616;2023-04-25T13:20:43;97197.59;;;13.42;100.00
41886;BME280;27567;43.084;25.616;2023-04-25T13:23:28;97216.69;;;13.23;100.00
41886;BME280;27567;43.084;25.616;2023-04-25T13:26:13;97201.53;;;13.00;100.00
41886;BME280;27567;43.084;25.616;2023-04-25T13:28:58;97201.59;;;13.05;100.00
41886;BME280;27567;43.084;25.616;2023-04-25T13:31:41;97202.75;;;13.10;100.00
41886;BME280;27567;43.084;25.616;2023-04-25T13:34:25;97201.53;;;13.00;100.00
41886;BME280;27567;43.084;25.616;2023-04-25T13:37:09;97185.63;;;13.16;100.00
41886;BME280;27567;43.084;25.616;2023-04-25T13:39:54;97180.84;;;13.40;100.00
41886;BME280;27567;43.084;25.616;2023-04-25T13:42:39;97166.09;;;13.60;100.00
41886;BME280;27567;43.084;25.616;2023-04-25T13:45:24;97171.47;;;13.60;100.00
41886;BME280;27567;43.084;25.616;2023-04-25T13:48:07;97171.06;;;13.73;100.00
41886;BME280;27567;43.084;25.616;2023-04-25T13:50:51;97170.78;;;13.70;100.00
41886;BME280;27567;43.084;25.616;2023-04-25T13:53:35;97171.25;;;14.11;100.00
41886;BME280;27567;43.084;25.616;2023-04-25T13:56:19;97156.84;;;15.25;100.00
41886;BME280;27567;43.084;25.616;2023-04-25T13:59:04;97150.03;;;17.07;100.00
41886;BME280;27567;43.084;25.616;2023-04-25T14:01:47;97152.94;;;17.36;100.00
41886;BME280;27567;43.084;25.616;2023-04-25T14:04:31;97152.28;;;17.70;100.00
41886;BME280;27567;43.084;25.616;2023-04-25T14:07:16;97159.47;;;16.52;100.00
41886;BME280;27567;43.084;25.616;2023-04-25T14:10:01;97164.88;;;16.52;100.00
41886;BME280;27567;43.084;25.616;2023-04-25T14:12:45;97163.75;;;16.33;100.00